METAR AND TAF INFORMATION
METAR FOR CYBK
ADDS - METARS form results

(1257 UTC 22 October 2020)
Data provider http://aviationweather.gov/metar/data/
 
METAR text: CYBK 221217Z 32020G25KT 15SM DRSN FEW015 BKN039 M04/M06 A2981 RMK SC2SC3 SLP096
Conditions at: CYBK (BAKER LAKE AIRPO, NU, CA) observed 1217 UTC 22 October 2020
Temperature: -4.0°C (25°F)
Dewpoint: -6.0°C (21°F) [RH = 86%]
Pressure (altimeter): 29.81 inches Hg (1009.6 mb)
[Sea-level pressure: 1009.6 mb]
Winds: from the NW (320 degrees) at 23 MPH (20 knots; 10.3 m/s)
gusting to 29 MPH (25 knots; 12.9 m/s)
Visibility: 15 miles (24 km)
Ceiling: 3900 feet AGL
Clouds: few clouds at 1500 feet AGL
broken clouds at 3900 feet AGL
Weather: DRSN  (low drifting snow)

METAR text: CYBK 221200Z 32019KT 15SM -SN DRSN SCT014 OVC039 M04/M07 A2981 RMK SC4SC4 SLP097
Conditions at: CYBK (BAKER LAKE AIRPO, NU, CA) observed 1200 UTC 22 October 2020
Temperature: -4.0°C (25°F)
Dewpoint: -7.0°C (19°F) [RH = 80%]
Pressure (altimeter): 29.81 inches Hg (1009.6 mb)
[Sea-level pressure: 1009.7 mb]
Winds: from the NW (320 degrees) at 22 MPH (19 knots; 9.8 m/s)
Visibility: 15 miles (24 km)
Ceiling: 3900 feet AGL
Clouds: scattered clouds at 1400 feet AGL
overcast cloud deck at 3900 feet AGL
Weather: -SN DRSN  (light snow, low drifting snow)

Forecast for: CYBK (BAKER LAKE AIRPO, NU, CA)
Text: TAF CYBK 221138Z 2212/2224 33022G32KT P6SM SCT012 BKN040
Forecast period: 1200 UTC 22 October 2020 to 0000 UTC 23 October 2020
Forecast type: FROM: standard forecast or significant change
Winds: from the NNW (330 degrees) at 25 MPH (22 knots; 11.3 m/s)
gusting to 37 MPH (32 knots; 16.5 m/s)
Visibility: 6 or more miles (10+ km)
Ceiling: 4000 feet AGL
Clouds: scattered clouds at 1200 feet AGL
broken clouds at 4000 feet AGL
Weather: no significant weather forecast for this period
Text: TEMPO 2212/2224 21/2SM -SN BLSN BKN012 BKN040 RMK NXT FCST BY 221800Z
Forecast period: 1200 UTC 22 October 2020 to 0000 UTC 23 October 2020
Forecast type: TEMPORARY: The following changes expected for less than half the time period
Visibility: 2.50 miles (4.02 km)
Ceiling: 1200 feet AGL
Clouds: broken clouds at 1200 feet AGL
broken clouds at 4000 feet AGL
Weather: -SN BLSN  (light snow, blowing snow)

 AIRPORT MAP

 RUNWAY INFORMATION
Runway 16T Runway length 4200 ft Runway width 100 ft
Runway elevation 59 ft Runway displaced threshold 0 ft Runway heading 162
Runway 34T Runway length 4200 ft Runway width 100 ft
Runway elevation 10 ft Runway displaced threshold 0 ft Runway heading 342

 AIRPORT FREQUENCIES
Type FSS Name ARCTIC RDO Frequency 568 MHZ
Type UNIC Name ARPT RDO Frequency 122.1 MHZ

 AIRPORT NEAR NAVIGATION AIDS
Type NDB Name Baker Lake Frequency 224 KHZ
Type VOR-DME Name Baker Lake Frequency 114500 KHZ



Powered by Virtual Airlines Manager [v2.6.2]

Hosted by Utixo.it